sensor_id;sensor_type;location;lat;lon;timestamp;P1;durP1;ratioP1;P2;durP2;ratioP2
297;SDS011;133;49.626;9.680;2023-03-03T00:00:40;19.97;;;11.90;;
297;SDS011;133;49.626;9.680;2023-03-03T00:03:06;17.93;;;10.87;;
297;SDS011;133;49.626;9.680;2023-03-03T00:05:33;15.93;;;10.70;;
297;SDS011;133;49.626;9.680;2023-03-03T00:08:00;17.50;;;11.20;;
297;SDS011;133;49.626;9.680;2023-03-03T00:10:26;19.73;;;11.63;;
297;SDS011;133;49.626;9.680;2023-03-03T00:12:52;19.83;;;12.77;;
297;SDS011;133;49.626;9.680;2023-03-03T00:15:19;17.70;;;11.43;;
297;SDS011;133;49.626;9.680;2023-03-03T00:17:47;19.80;;;11.13;;
297;SDS011;133;49.626;9.680;2023-03-03T00:25:57;22.90;;;11.83;;
297;SDS011;133;49.626;9.680;2023-03-03T00:28:24;20.67;;;12.37;;
297;SDS011;133;49.626;9.680;2023-03-03T00:30:56;23.67;;;13.70;;
297;SDS011;133;49.626;9.680;2023-03-03T00:33:25;27.70;;;15.40;;
297;SDS011;133;49.626;9.680;2023-03-03T00:38:45;23.10;;;13.60;;
297;SDS011;133;49.626;9.680;2023-03-03T00:41:18;21.20;;;12.47;;
297;SDS011;133;49.626;9.680;2023-03-03T00:43:45;20.93;;;12.50;;
297;SDS011;133;49.626;9.680;2023-03-03T00:46:11;20.30;;;12.93;;
297;SDS011;133;49.626;9.680;2023-03-03T00:48:43;22.40;;;12.90;;
297;SDS011;133;49.626;9.680;2023-03-03T00:51:24;20.70;;;13.10;;
297;SDS011;133;49.626;9.680;2023-03-03T00:53:52;19.87;;;12.47;;
297;SDS011;133;49.626;9.680;2023-03-03T00:56:18;21.10;;;12.10;;
297;SDS011;133;49.626;9.680;2023-03-03T00:58:44;22.57;;;13.53;;
297;SDS011;133;49.626;9.680;2023-03-03T01:01:12;21.43;;;12.37;;
297;SDS011;133;49.626;9.680;2023-03-03T01:03:38;17.13;;;11.83;;
297;SDS011;133;49.626;9.680;2023-03-03T01:06:05;18.83;;;11.00;;
297;SDS011;133;49.626;9.680;2023-03-03T01:08:30;18.17;;;11.30;;
297;SDS011;133;49.626;9.680;2023-03-03T01:10:57;18.63;;;11.27;;
297;SDS011;133;49.626;9.680;2023-03-03T01:13:29;16.70;;;10.93;;
297;SDS011;133;49.626;9.680;2023-03-03T01:15:57;19.80;;;11.37;;
297;SDS011;133;49.626;9.680;2023-03-03T01:18:23;23.17;;;12.50;;
297;SDS011;133;49.626;9.680;2023-03-03T01:20:49;20.67;;;12.77;;
297;SDS011;133;49.626;9.680;2023-03-03T01:23:15;20.17;;;11.97;;
297;SDS011;133;49.626;9.680;2023-03-03T01:25:40;21.40;;;12.87;;
297;SDS011;133;49.626;9.680;2023-03-03T01:28:06;20.00;;;11.50;;
297;SDS011;133;49.626;9.680;2023-03-03T01:30:32;19.53;;;11.10;;
297;SDS011;133;49.626;9.680;2023-03-03T01:32:58;22.10;;;12.50;;
297;SDS011;133;49.626;9.680;2023-03-03T01:35:23;25.00;;;12.87;;
297;SDS011;133;49.626;9.680;2023-03-03T01:37:49;25.03;;;13.93;;
297;SDS011;133;49.626;9.680;2023-03-03T01:40:16;19.93;;;12.50;;
297;SDS011;133;49.626;9.680;2023-03-03T01:42:45;23.90;;;13.80;;
297;SDS011;133;49.626;9.680;2023-03-03T01:47:49;23.40;;;13.67;;
297;SDS011;133;49.626;9.680;2023-03-03T01:51:20;19.70;;;12.43;;
297;SDS011;133;49.626;9.680;2023-03-03T01:53:27;22.90;;;13.17;;
297;SDS011;133;49.626;9.680;2023-03-03T01:56:06;22.80;;;13.17;;
297;SDS011;133;49.626;9.680;2023-03-03T01:58:42;25.90;;;15.63;;
297;SDS011;133;49.626;9.680;2023-03-03T02:01:29;26.20;;;14.83;;
297;SDS011;133;49.626;9.680;2023-03-03T02:03:56;23.10;;;14.20;;
297;SDS011;133;49.626;9.680;2023-03-03T02:06:25;20.40;;;13.00;;
297;SDS011;133;49.626;9.680;2023-03-03T02:09:10;23.43;;;13.20;;
297;SDS011;133;49.626;9.680;2023-03-03T02:11:37;23.40;;;13.20;;
297;SDS011;133;49.626;9.680;2023-03-03T02:14:04;26.27;;;14.57;;
297;SDS011;133;49.626;9.680;2023-03-03T02:16:30;27.60;;;14.80;;
297;SDS011;133;49.626;9.680;2023-03-03T02:18:56;21.77;;;11.67;;
297;SDS011;133;49.626;9.680;2023-03-03T02:21:22;20.93;;;12.00;;
297;SDS011;133;49.626;9.680;2023-03-03T02:24:06;20.13;;;11.60;;
297;SDS011;133;49.626;9.680;2023-03-03T02:26:43;20.43;;;11.50;;
297;SDS011;133;49.626;9.680;2023-03-03T02:29:10;19.33;;;11.77;;
297;SDS011;133;49.626;9.680;2023-03-03T02:31:36;19.60;;;11.60;;
297;SDS011;133;49.626;9.680;2023-03-03T02:34:02;16.90;;;10.40;;
297;SDS011;133;49.626;9.680;2023-03-03T02:36:36;18.23;;;11.33;;
297;SDS011;133;49.626;9.680;2023-03-03T02:44:11;20.50;;;11.30;;
297;SDS011;133;49.626;9.680;2023-03-03T02:46:41;22.33;;;11.70;;
297;SDS011;133;49.626;9.680;2023-03-03T02:49:08;23.87;;;11.67;;
297;SDS011;133;49.626;9.680;2023-03-03T02:51:37;22.10;;;12.10;;
297;SDS011;133;49.626;9.680;2023-03-03T02:54:04;25.33;;;12.90;;
297;SDS011;133;49.626;9.680;2023-03-03T02:56:30;17.87;;;11.50;;
297;SDS011;133;49.626;9.680;2023-03-03T02:58:56;19.90;;;11.70;;
297;SDS011;133;49.626;9.680;2023-03-03T03:01:21;19.03;;;10.80;;
297;SDS011;133;49.626;9.680;2023-03-03T03:03:47;18.87;;;12.07;;
297;SDS011;133;49.626;9.680;2023-03-03T03:06:13;18.87;;;11.50;;
297;SDS011;133;49.626;9.680;2023-03-03T03:08:38;18.37;;;11.20;;
297;SDS011;133;49.626;9.680;2023-03-03T03:11:04;20.87;;;12.40;;
297;SDS011;133;49.626;9.680;2023-03-03T03:13:30;32.67;;;11.87;;
297;SDS011;133;49.626;9.680;2023-03-03T03:15:57;17.90;;;11.60;;
297;SDS011;133;49.626;9.680;2023-03-03T03:18:23;24.07;;;13.10;;
297;SDS011;133;49.626;9.680;2023-03-03T03:20:49;18.37;;;11.30;;
297;SDS011;133;49.626;9.680;2023-03-03T03:23:15;19.53;;;11.57;;
297;SDS011;133;49.626;9.680;2023-03-03T03:25:41;19.23;;;11.70;;
297;SDS011;133;49.626;9.680;2023-03-03T03:28:11;20.20;;;11.07;;
297;SDS011;133;49.626;9.680;2023-03-03T03:30:37;18.73;;;11.17;;
297;SDS011;133;49.626;9.680;2023-03-03T03:33:04;18.60;;;10.77;;
297;SDS011;133;49.626;9.680;2023-03-03T03:35:31;18.23;;;10.60;;
297;SDS011;133;49.626;9.680;2023-03-03T03:37:57;19.87;;;11.70;;
297;SDS011;133;49.626;9.680;2023-03-03T03:40:23;19.70;;;10.87;;
297;SDS011;133;49.626;9.680;2023-03-03T03:42:50;20.20;;;10.87;;
297;SDS011;133;49.626;9.680;2023-03-03T03:45:19;19.75;;;11.20;;
297;SDS011;133;49.626;9.680;2023-03-03T03:47:46;18.33;;;10.60;;
297;SDS011;133;49.626;9.680;2023-03-03T03:50:11;20.43;;;11.60;;
297;SDS011;133;49.626;9.680;2023-03-03T03:52:37;25.10;;;12.17;;
297;SDS011;133;49.626;9.680;2023-03-03T03:55:03;23.13;;;11.60;;
297;SDS011;133;49.626;9.680;2023-03-03T03:57:29;16.57;;;11.30;;
297;SDS011;133;49.626;9.680;2023-03-03T03:59:55;18.23;;;11.10;;
297;SDS011;133;49.626;9.680;2023-03-03T04:02:20;19.20;;;10.40;;
297;SDS011;133;49.626;9.680;2023-03-03T04:04:46;17.47;;;10.83;;
297;SDS011;133;49.626;9.680;2023-03-03T04:07:12;21.07;;;11.90;;
297;SDS011;133;49.626;9.680;2023-03-03T04:09:38;17.30;;;11.00;;
297;SDS011;133;49.626;9.680;2023-03-03T04:12:03;18.67;;;11.03;;
297;SDS011;133;49.626;9.680;2023-03-03T04:14:29;17.10;;;10.87;;
297;SDS011;133;49.626;9.680;2023-03-03T04:16:54;16.43;;;10.20;;
297;SDS011;133;49.626;9.680;2023-03-03T04:19:21;19.50;;;10.70;;
297;SDS011;133;49.626;9.680;2023-03-03T04:21:46;17.50;;;10.45;;
297;SDS011;133;49.626;9.680;2023-03-03T04:24:12;22.70;;;11.67;;
297;SDS011;133;49.626;9.680;2023-03-03T04:26:38;18.23;;;11.17;;
297;SDS011;133;49.626;9.680;2023-03-03T04:29:03;23.17;;;12.03;;
297;SDS011;133;49.626;9.680;2023-03-03T04:31:29;18.40;;;11.40;;
297;SDS011;133;49.626;9.680;2023-03-03T04:33:55;21.00;;;11.40;;
297;SDS011;133;49.626;9.680;2023-03-03T04:36:20;20.83;;;12.10;;
297;SDS011;133;49.626;9.680;2023-03-03T04:38:46;21.23;;;11.20;;
297;SDS011;133;49.626;9.680;2023-03-03T04:41:13;17.30;;;11.00;;
297;SDS011;133;49.626;9.680;2023-03-03T04:43:38;19.50;;;11.07;;
297;SDS011;133;49.626;9.680;2023-03-03T04:46:04;19.77;;;11.90;;
297;SDS011;133;49.626;9.680;2023-03-03T04:48:30;20.93;;;11.67;;
297;SDS011;133;49.626;9.680;2023-03-03T04:50:55;21.90;;;12.07;;
297;SDS011;133;49.626;9.680;2023-03-03T04:53:21;19.40;;;10.33;;
297;SDS011;133;49.626;9.680;2023-03-03T04:55:49;20.77;;;11.57;;
297;SDS011;133;49.626;9.680;2023-03-03T04:58:15;20.75;;;11.73;;
297;SDS011;133;49.626;9.680;2023-03-03T05:00:43;20.90;;;12.30;;
297;SDS011;133;49.626;9.680;2023-03-03T05:03:12;17.75;;;11.57;;
297;SDS011;133;49.626;9.680;2023-03-03T05:05:37;23.13;;;12.53;;
297;SDS011;133;49.626;9.680;2023-03-03T05:08:04;22.97;;;13.33;;
297;SDS011;133;49.626;9.680;2023-03-03T05:10:30;22.37;;;11.70;;
297;SDS011;133;49.626;9.680;2023-03-03T05:12:56;21.90;;;13.40;;
297;SDS011;133;49.626;9.680;2023-03-03T05:15:21;20.97;;;12.43;;
297;SDS011;133;49.626;9.680;2023-03-03T05:17:47;21.17;;;11.80;;
297;SDS011;133;49.626;9.680;2023-03-03T05:20:13;18.00;;;10.80;;
297;SDS011;133;49.626;9.680;2023-03-03T05:22:38;21.57;;;12.43;;
297;SDS011;133;49.626;9.680;2023-03-03T05:25:04;19.97;;;11.93;;
297;SDS011;133;49.626;9.680;2023-03-03T05:27:30;20.40;;;12.17;;
297;SDS011;133;49.626;9.680;2023-03-03T05:29:56;20.20;;;10.83;;
297;SDS011;133;49.626;9.680;2023-03-03T05:32:21;18.83;;;11.87;;
297;SDS011;133;49.626;9.680;2023-03-03T05:34:47;19.60;;;12.00;;
297;SDS011;133;49.626;9.680;2023-03-03T05:37:12;22.13;;;12.03;;
297;SDS011;133;49.626;9.680;2023-03-03T05:39:39;20.42;;;12.80;;
297;SDS011;133;49.626;9.680;2023-03-03T05:42:05;20.50;;;11.43;;
297;SDS011;133;49.626;9.680;2023-03-03T05:44:31;20.97;;;12.00;;
297;SDS011;133;49.626;9.680;2023-03-03T05:46:56;20.17;;;11.27;;
297;SDS011;133;49.626;9.680;2023-03-03T05:49:23;22.20;;;12.33;;
297;SDS011;133;49.626;9.680;2023-03-03T05:51:49;23.05;;;12.13;;
297;SDS011;133;49.626;9.680;2023-03-03T05:54:14;22.60;;;13.83;;
297;SDS011;133;49.626;9.680;2023-03-03T05:56:40;20.90;;;11.90;;
297;SDS011;133;49.626;9.680;2023-03-03T05:59:06;26.30;;;13.30;;
297;SDS011;133;49.626;9.680;2023-03-03T06:01:31;27.83;;;14.87;;
297;SDS011;133;49.626;9.680;2023-03-03T06:03:57;22.70;;;12.82;;
297;SDS011;133;49.626;9.680;2023-03-03T06:06:23;26.00;;;13.47;;
297;SDS011;133;49.626;9.680;2023-03-03T06:08:49;21.73;;;13.20;;
297;SDS011;133;49.626;9.680;2023-03-03T06:11:14;21.53;;;12.20;;
297;SDS011;133;49.626;9.680;2023-03-03T06:13:42;24.38;;;13.52;;
297;SDS011;133;49.626;9.680;2023-03-03T06:16:08;23.67;;;13.50;;
297;SDS011;133;49.626;9.680;2023-03-03T06:18:33;22.13;;;13.67;;
297;SDS011;133;49.626;9.680;2023-03-03T06:20:59;22.40;;;12.97;;
297;SDS011;133;49.626;9.680;2023-03-03T06:23:24;21.40;;;12.53;;
297;SDS011;133;49.626;9.680;2023-03-03T06:25:50;24.60;;;13.13;;
297;SDS011;133;49.626;9.680;2023-03-03T06:28:17;20.80;;;11.43;;
297;SDS011;133;49.626;9.680;2023-03-03T06:30:42;25.83;;;14.07;;
297;SDS011;133;49.626;9.680;2023-03-03T06:33:08;28.73;;;14.20;;
297;SDS011;133;49.626;9.680;2023-03-03T06:35:34;32.00;;;18.33;;
297;SDS011;133;49.626;9.680;2023-03-03T06:38:00;27.40;;;15.60;;
297;SDS011;133;49.626;9.680;2023-03-03T06:40:26;26.87;;;16.03;;
297;SDS011;133;49.626;9.680;2023-03-03T06:42:51;65.70;;;29.33;;
297;SDS011;133;49.626;9.680;2023-03-03T06:45:17;60.93;;;28.03;;
297;SDS011;133;49.626;9.680;2023-03-03T06:47:43;40.63;;;21.10;;
297;SDS011;133;49.626;9.680;2023-03-03T06:50:09;29.67;;;15.50;;
297;SDS011;133;49.626;9.680;2023-03-03T06:52:36;23.95;;;14.00;;
297;SDS011;133;49.626;9.680;2023-03-03T06:55:09;30.47;;;17.00;;
297;SDS011;133;49.626;9.680;2023-03-03T06:57:37;24.37;;;13.50;;
297;SDS011;133;49.626;9.680;2023-03-03T07:00:16;22.67;;;12.80;;
297;SDS011;133;49.626;9.680;2023-03-03T07:02:46;24.77;;;13.60;;
297;SDS011;133;49.626;9.680;2023-03-03T07:05:16;26.67;;;14.80;;
297;SDS011;133;49.626;9.680;2023-03-03T07:07:42;23.65;;;14.02;;
297;SDS011;133;49.626;9.680;2023-03-03T07:10:15;22.20;;;14.03;;
297;SDS011;133;49.626;9.680;2023-03-03T07:12:46;30.83;;;16.60;;
297;SDS011;133;49.626;9.680;2023-03-03T07:17:41;28.53;;;18.97;;
297;SDS011;133;49.626;9.680;2023-03-03T07:23:18;25.17;;;14.60;;
297;SDS011;133;49.626;9.680;2023-03-03T07:25:48;26.17;;;15.30;;
297;SDS011;133;49.626;9.680;2023-03-03T07:28:27;26.63;;;15.33;;
297;SDS011;133;49.626;9.680;2023-03-03T07:30:56;23.93;;;13.93;;
297;SDS011;133;49.626;9.680;2023-03-03T07:35:59;25.50;;;15.13;;
297;SDS011;133;49.626;9.680;2023-03-03T07:40:56;28.00;;;15.60;;
297;SDS011;133;49.626;9.680;2023-03-03T07:49:07;28.30;;;15.13;;
297;SDS011;133;49.626;9.680;2023-03-03T07:51:57;25.00;;;13.87;;
297;SDS011;133;49.626;9.680;2023-03-03T07:54:34;26.37;;;16.23;;
297;SDS011;133;49.626;9.680;2023-03-03T07:59:45;26.80;;;15.83;;
297;SDS011;133;49.626;9.680;2023-03-03T08:02:36;23.27;;;14.00;;
297;SDS011;133;49.626;9.680;2023-03-03T08:07:49;23.10;;;14.00;;
297;SDS011;133;49.626;9.680;2023-03-03T08:10:35;25.60;;;15.47;;
297;SDS011;133;49.626;9.680;2023-03-03T08:18:29;24.13;;;14.57;;
297;SDS011;133;49.626;9.680;2023-03-03T08:21:19;25.27;;;14.37;;
297;SDS011;133;49.626;9.680;2023-03-03T08:23:45;24.43;;;15.03;;
297;SDS011;133;49.626;9.680;2023-03-03T08:26:15;27.23;;;16.33;;
297;SDS011;133;49.626;9.680;2023-03-03T08:28:45;26.77;;;16.43;;
297;SDS011;133;49.626;9.680;2023-03-03T08:31:11;27.30;;;16.63;;
297;SDS011;133;49.626;9.680;2023-03-03T08:33:37;31.87;;;17.00;;
297;SDS011;133;49.626;9.680;2023-03-03T08:36:03;29.50;;;16.20;;
297;SDS011;133;49.626;9.680;2023-03-03T08:38:30;30.30;;;16.87;;
297;SDS011;133;49.626;9.680;2023-03-03T08:40:55;27.63;;;16.30;;
297;SDS011;133;49.626;9.680;2023-03-03T08:43:21;30.47;;;17.80;;
297;SDS011;133;49.626;9.680;2023-03-03T08:45:49;30.47;;;18.30;;
297;SDS011;133;49.626;9.680;2023-03-03T08:48:15;34.13;;;17.80;;
297;SDS011;133;49.626;9.680;2023-03-03T08:50:42;32.87;;;16.37;;
297;SDS011;133;49.626;9.680;2023-03-03T08:53:08;32.17;;;17.10;;
297;SDS011;133;49.626;9.680;2023-03-03T08:55:34;27.93;;;15.77;;
297;SDS011;133;49.626;9.680;2023-03-03T08:58:00;30.77;;;17.47;;
297;SDS011;133;49.626;9.680;2023-03-03T09:00:26;35.63;;;17.80;;
297;SDS011;133;49.626;9.680;2023-03-03T09:02:52;31.73;;;17.60;;
297;SDS011;133;49.626;9.680;2023-03-03T09:05:18;33.13;;;18.67;;
297;SDS011;133;49.626;9.680;2023-03-03T09:07:45;34.00;;;18.20;;
297;SDS011;133;49.626;9.680;2023-03-03T09:10:12;32.03;;;18.27;;
297;SDS011;133;49.626;9.680;2023-03-03T09:12:44;35.80;;;17.70;;
297;SDS011;133;49.626;9.680;2023-03-03T09:15:18;36.97;;;19.40;;
297;SDS011;133;49.626;9.680;2023-03-03T09:17:49;34.30;;;18.47;;
297;SDS011;133;49.626;9.680;2023-03-03T09:20:35;36.70;;;19.83;;
297;SDS011;133;49.626;9.680;2023-03-03T09:23:44;36.90;;;19.27;;
297;SDS011;133;49.626;9.680;2023-03-03T09:28:50;36.80;;;19.57;;
297;SDS011;133;49.626;9.680;2023-03-03T09:31:35;39.20;;;20.77;;
297;SDS011;133;49.626;9.680;2023-03-03T09:36:47;34.20;;;18.67;;
297;SDS011;133;49.626;9.680;2023-03-03T09:55:35;35.70;;;20.27;;
297;SDS011;133;49.626;9.680;2023-03-03T10:09:17;36.90;;;21.43;;
297;SDS011;133;49.626;9.680;2023-03-03T10:11:57;39.97;;;22.53;;
297;SDS011;133;49.626;9.680;2023-03-03T10:22:19;37.00;;;21.17;;
297;SDS011;133;49.626;9.680;2023-03-03T10:27:50;35.73;;;20.87;;
297;SDS011;133;49.626;9.680;2023-03-03T10:32:57;35.57;;;20.97;;
297;SDS011;133;49.626;9.680;2023-03-03T10:41:40;34.33;;;20.57;;
297;SDS011;133;49.626;9.680;2023-03-03T10:49:31;36.13;;;21.20;;
297;SDS011;133;49.626;9.680;2023-03-03T10:53:01;33.80;;;20.00;;
297;SDS011;133;49.626;9.680;2023-03-03T11:01:38;37.07;;;21.73;;
297;SDS011;133;49.626;9.680;2023-03-03T11:07:51;35.23;;;19.00;;
297;SDS011;133;49.626;9.680;2023-03-03T11:12:57;38.80;;;20.90;;
297;SDS011;133;49.626;9.680;2023-03-03T11:35:22;29.57;;;18.20;;
297;SDS011;133;49.626;9.680;2023-03-03T11:40:21;30.27;;;18.93;;
297;SDS011;133;49.626;9.680;2023-03-03T11:42:57;30.33;;;18.97;;
297;SDS011;133;49.626;9.680;2023-03-03T11:45:38;31.43;;;17.93;;
297;SDS011;133;49.626;9.680;2023-03-03T11:48:13;30.30;;;20.87;;
297;SDS011;133;49.626;9.680;2023-03-03T11:51:02;27.77;;;19.37;;
297;SDS011;133;49.626;9.680;2023-03-03T11:56:22;32.00;;;20.50;;
297;SDS011;133;49.626;9.680;2023-03-03T12:01:54;29.50;;;19.13;;
297;SDS011;133;49.626;9.680;2023-03-03T12:07:18;25.37;;;18.33;;
297;SDS011;133;49.626;9.680;2023-03-03T12:21:59;30.80;;;21.30;;
297;SDS011;133;49.626;9.680;2023-03-03T12:24:31;26.70;;;20.10;;
297;SDS011;133;49.626;9.680;2023-03-03T12:27:08;30.07;;;18.30;;
297;SDS011;133;49.626;9.680;2023-03-03T12:29:39;35.70;;;21.57;;
297;SDS011;133;49.626;9.680;2023-03-03T12:35:54;28.83;;;19.83;;
297;SDS011;133;49.626;9.680;2023-03-03T12:38:12;28.17;;;19.30;;
297;SDS011;133;49.626;9.680;2023-03-03T12:41:04;28.43;;;19.30;;
297;SDS011;133;49.626;9.680;2023-03-03T12:46:22;28.80;;;19.57;;
297;SDS011;133;49.626;9.680;2023-03-03T12:48:58;31.77;;;21.53;;
297;SDS011;133;49.626;9.680;2023-03-03T12:51:36;33.43;;;21.77;;
297;SDS011;133;49.626;9.680;2023-03-03T13:17:14;28.80;;;19.40;;
297;SDS011;133;49.626;9.680;2023-03-03T13:19:55;24.90;;;17.87;;
297;SDS011;133;49.626;9.680;2023-03-03T13:27:31;34.47;;;21.00;;
297;SDS011;133;49.626;9.680;2023-03-03T13:30:14;27.70;;;19.30;;
297;SDS011;133;49.626;9.680;2023-03-03T13:32:52;26.10;;;19.30;;
297;SDS011;133;49.626;9.680;2023-03-03T13:38:48;29.70;;;19.50;;
297;SDS011;133;49.626;9.680;2023-03-03T13:41:19;30.23;;;20.10;;
297;SDS011;133;49.626;9.680;2023-03-03T13:49:53;29.80;;;20.40;;
297;SDS011;133;49.626;9.680;2023-03-03T13:52:27;30.07;;;20.50;;
297;SDS011;133;49.626;9.680;2023-03-03T13:55:32;37.83;;;21.07;;
297;SDS011;133;49.626;9.680;2023-03-03T13:58:08;31.37;;;20.90;;
297;SDS011;133;49.626;9.680;2023-03-03T14:01:03;30.90;;;20.87;;
297;SDS011;133;49.626;9.680;2023-03-03T14:03:34;28.23;;;19.23;;
297;SDS011;133;49.626;9.680;2023-03-03T14:16:55;28.67;;;18.87;;
297;SDS011;133;49.626;9.680;2023-03-03T14:19:43;28.37;;;19.00;;
297;SDS011;133;49.626;9.680;2023-03-03T14:24:55;29.53;;;20.00;;
297;SDS011;133;49.626;9.680;2023-03-03T14:27:36;27.63;;;18.73;;
297;SDS011;133;49.626;9.680;2023-03-03T14:30:46;26.20;;;16.37;;
297;SDS011;133;49.626;9.680;2023-03-03T14:35:35;23.90;;;16.90;;
297;SDS011;133;49.626;9.680;2023-03-03T14:38:19;24.73;;;16.23;;
297;SDS011;133;49.626;9.680;2023-03-03T14:41:13;25.80;;;16.80;;
297;SDS011;133;49.626;9.680;2023-03-03T14:43:42;27.77;;;17.30;;
297;SDS011;133;49.626;9.680;2023-03-03T14:49:27;29.10;;;17.37;;
297;SDS011;133;49.626;9.680;2023-03-03T14:52:00;23.27;;;16.73;;
297;SDS011;133;49.626;9.680;2023-03-03T14:54:44;27.17;;;15.63;;
297;SDS011;133;49.626;9.680;2023-03-03T14:57:15;27.50;;;17.90;;
297;SDS011;133;49.626;9.680;2023-03-03T15:02:40;31.37;;;18.10;;
297;SDS011;133;49.626;9.680;2023-03-03T15:05:17;30.20;;;16.50;;
297;SDS011;133;49.626;9.680;2023-03-03T15:07:55;21.20;;;14.00;;
297;SDS011;133;49.626;9.680;2023-03-03T15:10:41;20.93;;;13.07;;
297;SDS011;133;49.626;9.680;2023-03-03T15:18:24;21.57;;;13.20;;
297;SDS011;133;49.626;9.680;2023-03-03T15:20:58;24.23;;;13.80;;
297;SDS011;133;49.626;9.680;2023-03-03T15:31:41;20.43;;;12.03;;
297;SDS011;133;49.626;9.680;2023-03-03T15:34:23;20.07;;;12.10;;
297;SDS011;133;49.626;9.680;2023-03-03T15:37:26;18.97;;;11.30;;
297;SDS011;133;49.626;9.680;2023-03-03T15:40:12;18.37;;;10.80;;
297;SDS011;133;49.626;9.680;2023-03-03T15:45:39;16.90;;;10.93;;
297;SDS011;133;49.626;9.680;2023-03-03T16:03:52;21.07;;;11.77;;
297;SDS011;133;49.626;9.680;2023-03-03T16:06:25;18.47;;;10.90;;
297;SDS011;133;49.626;9.680;2023-03-03T16:17:21;18.90;;;11.20;;
297;SDS011;133;49.626;9.680;2023-03-03T16:20:26;18.37;;;11.53;;
297;SDS011;133;49.626;9.680;2023-03-03T16:28:51;17.73;;;10.73;;
297;SDS011;133;49.626;9.680;2023-03-03T16:36:50;17.10;;;10.83;;
297;SDS011;133;49.626;9.680;2023-03-03T16:42:16;14.43;;;9.73;;
297;SDS011;133;49.626;9.680;2023-03-03T16:44:52;15.87;;;10.70;;
297;SDS011;133;49.626;9.680;2023-03-03T16:53:09;17.97;;;10.00;;
297;SDS011;133;49.626;9.680;2023-03-03T17:04:01;19.47;;;11.00;;
297;SDS011;133;49.626;9.680;2023-03-03T17:11:48;45.93;;;26.73;;
297;SDS011;133;49.626;9.680;2023-03-03T17:25:49;26.27;;;14.27;;
297;SDS011;133;49.626;9.680;2023-03-03T17:28:33;26.93;;;15.03;;
297;SDS011;133;49.626;9.680;2023-03-03T17:33:59;25.60;;;14.67;;
297;SDS011;133;49.626;9.680;2023-03-03T17:36:36;28.87;;;16.10;;
297;SDS011;133;49.626;9.680;2023-03-03T17:44:37;31.60;;;19.10;;
297;SDS011;133;49.626;9.680;2023-03-03T17:59:13;23.50;;;14.90;;
297;SDS011;133;49.626;9.680;2023-03-03T18:04:51;28.43;;;16.83;;
297;SDS011;133;49.626;9.680;2023-03-03T18:12:58;32.33;;;18.37;;
297;SDS011;133;49.626;9.680;2023-03-03T18:21:07;26.03;;;16.27;;
297;SDS011;133;49.626;9.680;2023-03-03T18:23:45;26.20;;;16.10;;
297;SDS011;133;49.626;9.680;2023-03-03T18:26:30;26.23;;;16.20;;
297;SDS011;133;49.626;9.680;2023-03-03T18:40:14;24.93;;;15.00;;
297;SDS011;133;49.626;9.680;2023-03-03T18:42:38;24.40;;;15.67;;
297;SDS011;133;49.626;9.680;2023-03-03T18:45:53;28.23;;;16.07;;
297;SDS011;133;49.626;9.680;2023-03-03T18:48:01;21.53;;;13.73;;
297;SDS011;133;49.626;9.680;2023-03-03T18:53:24;22.90;;;13.67;;
297;SDS011;133;49.626;9.680;2023-03-03T18:58:36;24.37;;;15.03;;
297;SDS011;133;49.626;9.680;2023-03-03T19:04:08;25.00;;;14.20;;
297;SDS011;133;49.626;9.680;2023-03-03T19:09:17;25.60;;;14.40;;
297;SDS011;133;49.626;9.680;2023-03-03T19:12:06;21.10;;;12.97;;
297;SDS011;133;49.626;9.680;2023-03-03T19:14:33;24.97;;;13.50;;
297;SDS011;133;49.626;9.680;2023-03-03T19:22:44;25.87;;;11.80;;
297;SDS011;133;49.626;9.680;2023-03-03T19:25:23;25.07;;;14.20;;
297;SDS011;133;49.626;9.680;2023-03-03T19:28:00;25.87;;;14.53;;
297;SDS011;133;49.626;9.680;2023-03-03T19:30:46;48.90;;;23.23;;
297;SDS011;133;49.626;9.680;2023-03-03T19:41:21;26.40;;;14.20;;
297;SDS011;133;49.626;9.680;2023-03-03T19:46:57;21.90;;;13.27;;
297;SDS011;133;49.626;9.680;2023-03-03T20:09:38;27.17;;;14.23;;
297;SDS011;133;49.626;9.680;2023-03-03T20:12:45;27.33;;;16.23;;
297;SDS011;133;49.626;9.680;2023-03-03T20:15:09;30.30;;;17.00;;
297;SDS011;133;49.626;9.680;2023-03-03T20:20:31;24.20;;;14.37;;
297;SDS011;133;49.626;9.680;2023-03-03T20:25:47;30.17;;;15.60;;
297;SDS011;133;49.626;9.680;2023-03-03T20:58:30;26.93;;;13.30;;
297;SDS011;133;49.626;9.680;2023-03-03T21:01:15;21.93;;;12.40;;
297;SDS011;133;49.626;9.680;2023-03-03T21:03:51;17.03;;;10.83;;
297;SDS011;133;49.626;9.680;2023-03-03T21:06:18;17.53;;;11.03;;
297;SDS011;133;49.626;9.680;2023-03-03T21:11:22;23.90;;;13.10;;
297;SDS011;133;49.626;9.680;2023-03-03T21:14:12;32.23;;;18.13;;
297;SDS011;133;49.626;9.680;2023-03-03T21:16:41;19.73;;;13.13;;
297;SDS011;133;49.626;9.680;2023-03-03T21:19:11;21.10;;;10.93;;
297;SDS011;133;49.626;9.680;2023-03-03T21:21:46;20.30;;;11.60;;
297;SDS011;133;49.626;9.680;2023-03-03T21:24:13;20.37;;;10.60;;
297;SDS011;133;49.626;9.680;2023-03-03T21:29:24;22.53;;;12.23;;
297;SDS011;133;49.626;9.680;2023-03-03T21:31:54;23.77;;;11.70;;
297;SDS011;133;49.626;9.680;2023-03-03T21:34:34;19.70;;;11.30;;
297;SDS011;133;49.626;9.680;2023-03-03T21:37:05;21.83;;;10.63;;
297;SDS011;133;49.626;9.680;2023-03-03T21:39:35;18.00;;;9.73;;
297;SDS011;133;49.626;9.680;2023-03-03T21:42:03;19.20;;;9.90;;
297;SDS011;133;49.626;9.680;2023-03-03T21:44:43;14.27;;;8.87;;
297;SDS011;133;49.626;9.680;2023-03-03T21:49:43;15.70;;;9.03;;
297;SDS011;133;49.626;9.680;2023-03-03T21:52:10;13.50;;;8.63;;
297;SDS011;133;49.626;9.680;2023-03-03T21:54:38;11.67;;;7.60;;
297;SDS011;133;49.626;9.680;2023-03-03T21:57:04;14.07;;;7.80;;
297;SDS011;133;49.626;9.680;2023-03-03T21:59:30;14.00;;;8.27;;
297;SDS011;133;49.626;9.680;2023-03-03T22:01:55;13.60;;;8.23;;
297;SDS011;133;49.626;9.680;2023-03-03T22:04:21;11.13;;;7.07;;
297;SDS011;133;49.626;9.680;2023-03-03T22:06:47;12.10;;;7.73;;
297;SDS011;133;49.626;9.680;2023-03-03T22:09:12;9.43;;;6.40;;
297;SDS011;133;49.626;9.680;2023-03-03T22:11:38;12.37;;;7.77;;
297;SDS011;133;49.626;9.680;2023-03-03T22:14:04;10.93;;;6.90;;
297;SDS011;133;49.626;9.680;2023-03-03T22:16:31;13.23;;;7.10;;
297;SDS011;133;49.626;9.680;2023-03-03T22:19:00;9.87;;;6.87;;
297;SDS011;133;49.626;9.680;2023-03-03T22:21:29;13.43;;;6.70;;
297;SDS011;133;49.626;9.680;2023-03-03T22:23:56;11.33;;;6.80;;
297;SDS011;133;49.626;9.680;2023-03-03T22:26:23;10.60;;;6.50;;
297;SDS011;133;49.626;9.680;2023-03-03T22:28:49;13.50;;;6.90;;
297;SDS011;133;49.626;9.680;2023-03-03T22:31:15;10.93;;;6.70;;
297;SDS011;133;49.626;9.680;2023-03-03T22:33:41;10.77;;;6.60;;
297;SDS011;133;49.626;9.680;2023-03-03T22:36:07;8.13;;;5.80;;
297;SDS011;133;49.626;9.680;2023-03-03T22:38:33;10.23;;;6.53;;
297;SDS011;133;49.626;9.680;2023-03-03T22:40:59;9.97;;;7.03;;
297;SDS011;133;49.626;9.680;2023-03-03T22:43:25;9.17;;;6.00;;
297;SDS011;133;49.626;9.680;2023-03-03T22:45:53;9.80;;;6.77;;
297;SDS011;133;49.626;9.680;2023-03-03T22:48:22;12.70;;;6.60;;
297;SDS011;133;49.626;9.680;2023-03-03T22:50:49;9.83;;;6.33;;
297;SDS011;133;49.626;9.680;2023-03-03T22:53:16;13.07;;;7.40;;
297;SDS011;133;49.626;9.680;2023-03-03T22:55:41;11.47;;;7.23;;
297;SDS011;133;49.626;9.680;2023-03-03T22:58:07;11.50;;;7.60;;
297;SDS011;133;49.626;9.680;2023-03-03T23:00:34;11.93;;;7.33;;
297;SDS011;133;49.626;9.680;2023-03-03T23:03:02;9.50;;;6.20;;
297;SDS011;133;49.626;9.680;2023-03-03T23:05:29;12.03;;;6.60;;